createdAt,value
2017-04-19T00:00:38.378Z,58.40
2017-04-19T00:01:37.419Z,58.50
2017-04-19T00:02:36.607Z,58.60
2017-04-19T00:03:35.660Z,58.60
2017-04-19T00:04:34.808Z,58.60
2017-04-19T00:05:33.887Z,58.50
2017-04-19T00:06:33.021Z,58.50
2017-04-19T00:07:32.129Z,58.60
2017-04-19T00:08:31.219Z,58.70
2017-04-19T00:09:30.304Z,58.80
2017-04-19T00:10:29.349Z,59.00
2017-04-19T00:11:29.266Z,59.00
2017-04-19T00:12:28.334Z,59.20
2017-04-19T00:13:27.694Z,59.40
2017-04-19T00:14:26.759Z,59.80
2017-04-19T00:15:25.823Z,60.00
2017-04-19T00:16:24.888Z,60.20
2017-04-19T00:17:23.947Z,60.50
2017-04-19T00:18:23.031Z,60.40
2017-04-19T00:19:22.275Z,60.50
2017-04-19T00:20:21.362Z,60.80
2017-04-19T00:21:20.422Z,60.90
2017-04-19T00:22:19.511Z,61.10
2017-04-19T00:23:18.632Z,61.10
2017-04-19T00:24:17.703Z,61.00
2017-04-19T00:25:16.789Z,61.10
2017-04-19T00:26:15.846Z,61.10
2017-04-19T00:27:14.904Z,61.00
2017-04-19T00:28:14.702Z,61.60
2017-04-19T00:29:13.775Z,61.10
2017-04-19T00:30:13.062Z,61.00
2017-04-19T00:31:12.239Z,60.80
2017-04-19T00:32:11.487Z,60.80
2017-04-19T00:33:10.575Z,61.00
2017-04-19T00:34:09.630Z,60.80
2017-04-19T00:35:08.679Z,60.80
2017-04-19T00:36:07.783Z,60.80
2017-04-19T00:37:06.843Z,61.00
2017-04-19T00:38:05.922Z,61.30
2017-04-19T00:39:05.239Z,61.50
2017-04-19T00:40:04.327Z,61.40
2017-04-19T00:41:03.761Z,61.40
2017-04-19T00:42:02.808Z,61.30
2017-04-19T00:43:02.643Z,61.20
2017-04-19T00:44:01.703Z,61.20
2017-04-19T00:45:00.774Z,61.30
2017-04-19T00:45:59.843Z,61.30
2017-04-19T00:46:58.906Z,61.30
2017-04-19T00:47:57.967Z,61.30
2017-04-19T00:48:57.051Z,61.30
2017-04-19T00:49:56.107Z,61.10
2017-04-19T00:50:55.941Z,61.00
2017-04-19T00:51:55.271Z,61.20
2017-04-19T00:52:54.379Z,61.30
2017-04-19T00:53:53.510Z,61.30
2017-04-19T00:54:52.616Z,61.40
2017-04-19T00:55:51.670Z,61.40
2017-04-19T00:56:50.842Z,62.00
2017-04-19T00:57:50.903Z,61.40
2017-04-19T00:58:49.963Z,61.20
2017-04-19T00:59:49.347Z,61.20
2017-04-19T01:00:48.437Z,61.20
2017-04-19T01:01:47.519Z,61.20
2017-04-19T01:02:46.607Z,61.20
2017-04-19T01:03:45.755Z,61.10
2017-04-19T01:04:44.822Z,61.20
2017-04-19T01:05:43.906Z,61.30
2017-04-19T01:06:43.006Z,61.30
2017-04-19T01:07:42.091Z,61.40
2017-04-19T01:08:41.183Z,61.50
2017-04-19T01:09:41.357Z,61.70
2017-04-19T01:10:40.422Z,61.80
2017-04-19T01:11:39.479Z,62.00
2017-04-19T01:12:38.594Z,62.10
2017-04-19T01:13:37.935Z,62.20
2017-04-19T01:14:37.773Z,62.60
2017-04-19T01:15:38.122Z,62.30
2017-04-19T01:16:37.186Z,62.40
2017-04-19T01:17:36.244Z,62.60
2017-04-19T01:18:35.455Z,62.60
2017-04-19T01:19:34.516Z,62.60
2017-04-19T01:20:33.651Z,62.70
2017-04-19T01:21:33.668Z,62.80
2017-04-19T01:22:32.789Z,63.00
2017-04-19T01:23:31.862Z,63.20
2017-04-19T01:24:31.767Z,63.30
2017-04-19T01:25:31.600Z,63.40
2017-04-19T01:26:30.674Z,63.50
2017-04-19T01:27:29.876Z,63.50
2017-04-19T01:28:28.938Z,63.60
2017-04-19T01:29:28.016Z,63.50
2017-04-19T01:30:27.133Z,63.60
2017-04-19T01:31:26.215Z,63.50
2017-04-19T01:32:25.540Z,63.70
2017-04-19T01:33:24.690Z,63.80
2017-04-19T01:34:23.759Z,63.90
2017-04-19T01:35:22.826Z,63.80
2017-04-19T01:36:22.946Z,63.90
2017-04-19T01:37:22.785Z,63.80
2017-04-19T01:38:22.210Z,63.80
2017-04-19T01:39:21.264Z,63.90
2017-04-19T01:40:20.348Z,64.00
2017-04-19T01:41:21.227Z,64.00
2017-04-19T01:42:21.171Z,64.00
2017-04-19T01:43:20.240Z,64.20
2017-04-19T01:44:19.331Z,64.30
2017-04-19T01:45:18.407Z,64.60
2017-04-19T01:46:17.514Z,64.50
2017-04-19T01:47:16.579Z,64.40
2017-04-19T01:48:15.682Z,64.50
2017-04-19T01:49:15.000Z,64.50
2017-04-19T01:50:14.138Z,64.70
2017-04-19T01:51:13.206Z,64.70
2017-04-19T01:52:13.087Z,64.60
2017-04-19T01:53:12.205Z,64.70
2017-04-19T01:54:11.292Z,64.80
2017-04-19T01:55:10.526Z,65.00
2017-04-19T01:56:09.602Z,65.00
2017-04-19T01:57:08.661Z,65.00
2017-04-19T01:58:07.763Z,65.00
2017-04-19T01:59:06.837Z,65.00
2017-04-19T02:00:05.912Z,65.00
2017-04-19T02:01:05.144Z,64.90
2017-04-19T02:02:04.219Z,64.70
2017-04-19T02:03:03.280Z,64.60
2017-04-19T02:04:02.391Z,64.70
2017-04-19T02:05:02.201Z,64.80
2017-04-19T02:06:36.411Z,64.90
2017-04-19T02:07:40.966Z,64.90
2017-04-19T02:08:40.766Z,65.00
2017-04-19T02:09:39.870Z,65.30
2017-04-19T02:10:38.975Z,65.40
2017-04-19T02:11:38.210Z,65.30
2017-04-19T02:12:37.316Z,65.30
2017-04-19T02:13:36.400Z,65.20
2017-04-19T02:14:35.702Z,66.60
2017-04-19T02:15:34.772Z,66.00
2017-04-19T02:16:34.588Z,66.10
2017-04-19T02:17:33.914Z,66.20
2017-04-19T02:18:33.311Z,66.50
2017-04-19T02:19:32.390Z,66.70
2017-04-19T02:20:31.451Z,66.60
2017-04-19T02:21:30.519Z,66.60
2017-04-19T02:22:29.602Z,66.60
2017-04-19T02:23:28.834Z,66.70
2017-04-19T02:24:27.895Z,66.70
2017-04-19T02:25:26.974Z,66.70
2017-04-19T02:26:26.049Z,66.80
2017-04-19T02:27:25.108Z,66.70
2017-04-19T02:28:24.198Z,66.60
2017-04-19T02:29:23.416Z,66.40
2017-04-19T02:30:22.491Z,66.40
2017-04-19T02:31:21.571Z,66.40
2017-04-19T02:32:20.710Z,66.80
2017-04-19T02:33:19.842Z,66.40
2017-04-19T02:34:18.911Z,66.50
2017-04-19T02:35:18.000Z,66.50
2017-04-19T02:36:17.815Z,66.30
2017-04-19T02:37:16.882Z,66.60
2017-04-19T02:38:15.962Z,66.30
2017-04-19T02:39:15.015Z,66.20
2017-04-19T02:40:14.257Z,66.20
2017-04-19T02:41:13.344Z,66.90
2017-04-19T02:42:12.429Z,66.20
2017-04-19T02:43:11.822Z,66.00
2017-04-19T02:44:10.921Z,65.90
2017-04-19T02:45:09.972Z,66.00
2017-04-19T02:46:09.930Z,65.90
2017-04-19T02:47:09.060Z,65.70
2017-04-19T02:48:08.105Z,65.80
2017-04-19T02:49:07.191Z,65.80
2017-04-19T02:50:06.275Z,65.80
2017-04-19T02:51:05.358Z,65.80
2017-04-19T02:52:04.445Z,65.70
2017-04-19T02:53:03.530Z,65.80
2017-04-19T02:54:02.618Z,65.80
2017-04-19T02:55:01.689Z,65.70
2017-04-19T02:56:00.729Z,65.70
2017-04-19T02:56:59.970Z,65.70
2017-04-19T02:57:59.043Z,65.80
2017-04-19T02:58:58.105Z,65.70
2017-04-19T02:59:57.178Z,65.80
2017-04-19T03:00:56.226Z,65.70
2017-04-19T03:01:55.279Z,65.60
2017-04-19T03:02:54.499Z,65.60
2017-04-19T03:03:53.551Z,65.60
2017-04-19T03:04:52.635Z,65.70
2017-04-19T03:05:51.689Z,65.60
2017-04-19T03:06:51.575Z,65.70
2017-04-19T03:07:51.379Z,66.50
2017-04-19T03:08:51.196Z,65.90
2017-04-19T03:09:51.915Z,65.90
2017-04-19T03:10:51.787Z,65.80
2017-04-19T03:11:50.852Z,65.80
2017-04-19T03:12:49.909Z,65.70
2017-04-19T03:13:49.242Z,65.70
2017-04-19T03:14:48.359Z,65.60
2017-04-19T03:15:47.430Z,65.60
2017-04-19T03:16:46.528Z,65.60
2017-04-19T03:17:45.610Z,65.50
2017-04-19T03:18:44.660Z,65.60
2017-04-19T03:19:43.763Z,65.60
2017-04-19T03:20:42.846Z,65.60
2017-04-19T03:21:42.258Z,65.70
2017-04-19T03:22:41.387Z,65.70
2017-04-19T03:23:40.469Z,65.80
2017-04-19T03:24:39.788Z,65.70
2017-04-19T03:25:38.878Z,65.90
2017-04-19T03:26:37.954Z,65.90
2017-04-19T03:27:37.055Z,66.10
2017-04-19T03:28:36.119Z,65.90
2017-04-19T03:29:35.190Z,66.10
2017-04-19T03:30:34.312Z,66.00
2017-04-19T03:31:33.362Z,65.90
2017-04-19T03:32:32.446Z,65.90
2017-04-19T03:33:31.591Z,65.90
2017-04-19T03:34:30.674Z,66.20
2017-04-19T03:35:30.742Z,66.40
2017-04-19T03:36:30.564Z,66.40
2017-04-19T03:37:29.650Z,66.50
2017-04-19T03:38:28.716Z,66.60
2017-04-19T03:39:27.802Z,66.60
2017-04-19T03:40:26.890Z,66.80
2017-04-19T03:41:26.119Z,67.00
2017-04-19T03:42:25.202Z,67.20
2017-04-19T03:43:25.114Z,67.30
2017-04-19T03:44:24.192Z,67.10
2017-04-19T03:45:23.287Z,67.70
2017-04-19T03:46:22.382Z,67.80
2017-04-19T03:47:21.623Z,67.90
2017-04-19T03:48:20.715Z,67.80
2017-04-19T03:49:19.775Z,67.90
2017-04-19T03:50:18.902Z,67.90
2017-04-19T03:51:18.719Z,68.10
2017-04-19T03:52:17.790Z,68.20
2017-04-19T03:53:16.906Z,68.30
2017-04-19T03:54:16.006Z,68.40
2017-04-19T03:55:15.090Z,68.50
2017-04-19T03:56:14.182Z,68.70
2017-04-19T03:57:13.262Z,68.60
2017-04-19T03:58:13.122Z,68.60
2017-04-19T03:59:12.217Z,68.60
2017-04-19T04:00:11.294Z,68.60
2017-04-19T04:01:10.404Z,68.70
2017-04-19T04:02:09.520Z,68.80
2017-04-19T04:03:08.595Z,68.80
2017-04-19T04:04:07.907Z,69.10
2017-04-19T04:05:07.015Z,69.00
2017-04-19T04:06:06.842Z,69.00
2017-04-19T04:07:05.914Z,69.10
2017-04-19T04:08:05.003Z,69.50
2017-04-19T04:09:04.356Z,69.80
2017-04-19T04:10:03.583Z,68.80
2017-04-19T04:11:02.672Z,68.80
2017-04-19T04:12:01.750Z,68.80
2017-04-19T04:13:00.822Z,69.10
2017-04-19T04:13:59.926Z,68.80
2017-04-19T04:14:59.032Z,68.90
2017-04-19T04:15:58.290Z,68.80
2017-04-19T04:16:57.675Z,68.60
2017-04-19T04:17:57.536Z,68.60
2017-04-19T04:18:56.623Z,68.70
2017-04-19T04:19:55.695Z,68.80
2017-04-19T04:20:54.774Z,69.00
2017-04-19T04:21:53.911Z,69.00
2017-04-19T04:22:53.770Z,68.80
2017-04-19T04:23:52.879Z,68.80
2017-04-19T04:24:51.951Z,68.80
2017-04-19T04:25:51.269Z,68.90
2017-04-19T04:26:50.899Z,69.00
2017-04-19T04:27:49.978Z,69.00
2017-04-19T04:28:49.083Z,69.00
2017-04-19T04:29:48.174Z,68.90
2017-04-19T04:30:47.246Z,68.80
2017-04-19T04:31:46.631Z,68.80
2017-04-19T04:32:46.067Z,68.70
2017-04-19T04:33:45.135Z,68.70
2017-04-19T04:34:44.214Z,68.70
2017-04-19T04:35:43.614Z,68.70
2017-04-19T04:36:42.692Z,68.70
2017-04-19T04:37:42.019Z,68.60
2017-04-19T04:38:41.291Z,68.70
2017-04-19T04:39:40.390Z,68.70
2017-04-19T04:40:39.471Z,68.70
2017-04-19T04:41:38.547Z,68.70
2017-04-19T04:42:37.618Z,68.60
2017-04-19T04:43:36.675Z,68.50
2017-04-19T04:44:36.429Z,68.50
2017-04-19T04:45:35.539Z,68.30
2017-04-19T04:46:35.394Z,68.20
2017-04-19T04:47:34.521Z,68.30
2017-04-19T04:48:34.381Z,68.30
2017-04-19T04:49:33.451Z,68.40
2017-04-19T04:50:32.864Z,68.40
2017-04-19T04:51:31.927Z,68.40
2017-04-19T04:52:31.294Z,68.40
2017-04-19T04:53:30.439Z,68.40
2017-04-19T04:54:29.530Z,68.30
2017-04-19T04:55:28.594Z,69.10
2017-04-19T04:56:27.678Z,68.20
2017-04-19T04:57:26.742Z,68.10
2017-04-19T04:58:25.823Z,67.90
2017-04-19T04:59:24.903Z,67.90
2017-04-19T05:00:24.019Z,67.80
2017-04-19T05:01:23.111Z,67.50
2017-04-19T05:02:22.174Z,67.40
2017-04-19T05:03:21.255Z,67.30
2017-04-19T05:04:20.346Z,67.30
2017-04-19T05:05:19.422Z,67.20
2017-04-19T05:06:18.670Z,67.10
2017-04-19T05:07:18.375Z,66.80
2017-04-19T05:08:18.182Z,66.70
2017-04-19T05:09:17.991Z,66.70
2017-04-19T05:10:17.386Z,67.80
2017-04-19T05:11:16.494Z,66.60
2017-04-19T05:12:15.597Z,66.50
2017-04-19T05:13:14.789Z,66.50
2017-04-19T05:14:13.875Z,66.30
2017-04-19T05:15:14.226Z,66.10
2017-04-19T05:16:13.318Z,65.90
2017-04-19T05:17:12.886Z,66.00
2017-04-19T05:18:12.427Z,66.00
2017-04-19T05:19:11.534Z,65.90
2017-04-19T05:20:10.606Z,65.80
2017-04-19T05:21:09.703Z,65.60
2017-04-19T05:22:08.790Z,65.60
2017-04-19T05:23:07.915Z,65.60
2017-04-19T05:24:06.984Z,65.60
2017-04-19T05:25:06.082Z,65.40
2017-04-19T05:26:05.154Z,65.40
2017-04-19T05:27:04.237Z,65.30
2017-04-19T05:28:03.359Z,65.30
2017-04-19T05:29:02.424Z,65.20
2017-04-19T05:30:01.480Z,65.20
2017-04-19T05:31:00.522Z,65.20
2017-04-19T05:31:59.576Z,65.00
2017-04-19T05:32:58.667Z,65.20
2017-04-19T05:33:57.753Z,65.20
2017-04-19T05:34:56.842Z,65.10
2017-04-19T05:35:55.926Z,65.10
2017-04-19T05:36:54.988Z,65.20
2017-04-19T05:37:54.046Z,65.20
2017-04-19T05:38:53.478Z,65.20
2017-04-19T05:39:52.549Z,65.20
2017-04-19T05:40:51.634Z,65.10
2017-04-19T05:41:50.699Z,65.00
2017-04-19T05:42:49.781Z,64.80
2017-04-19T05:43:48.893Z,64.80
2017-04-19T05:44:47.990Z,64.70
2017-04-19T05:45:47.142Z,64.70
2017-04-19T05:46:46.188Z,64.40
2017-04-19T05:47:44.486Z,64.30
2017-04-19T05:48:43.575Z,63.70
2017-04-19T05:49:43.005Z,63.40
2017-04-19T05:50:42.051Z,63.10
2017-04-19T05:51:41.143Z,63.20
2017-04-19T05:52:40.228Z,63.10
2017-04-19T05:53:38.556Z,63.10
2017-04-19T05:54:37.658Z,63.30
2017-04-19T05:55:36.767Z,63.20
2017-04-19T05:56:36.022Z,63.30
2017-04-19T05:57:36.031Z,62.90
2017-04-19T05:58:35.112Z,62.50
2017-04-19T05:59:34.194Z,62.20
2017-04-19T06:00:33.439Z,62.00
2017-04-19T06:01:32.522Z,61.90
2017-04-19T06:02:31.627Z,62.00
2017-04-19T06:03:31.074Z,61.70
2017-04-19T06:04:30.226Z,61.30
2017-04-19T06:05:29.327Z,61.40
2017-04-19T06:06:28.425Z,61.30
2017-04-19T06:07:27.519Z,61.20
2017-04-19T06:08:26.582Z,61.30
2017-04-19T06:09:25.665Z,61.30
2017-04-19T06:10:24.799Z,61.10
2017-04-19T06:11:24.024Z,60.50
2017-04-19T06:12:23.856Z,60.10
2017-04-19T06:13:22.955Z,60.00
2017-04-19T06:14:22.038Z,60.20
2017-04-19T06:15:21.126Z,60.10
2017-04-19T06:16:20.203Z,59.90
2017-04-19T06:17:19.321Z,59.90
2017-04-19T06:18:18.403Z,60.40
2017-04-19T06:19:17.506Z,59.80
2017-04-19T06:20:16.614Z,59.90
2017-04-19T06:21:15.802Z,59.90
2017-04-19T06:22:15.101Z,59.60
2017-04-19T06:23:15.134Z,59.50
2017-04-19T06:24:14.250Z,59.50
2017-04-19T06:25:13.343Z,59.10
2017-04-19T06:26:12.421Z,59.00
2017-04-19T06:27:11.523Z,59.20
2017-04-19T06:28:11.380Z,59.10
2017-04-19T06:29:10.494Z,59.30
2017-04-19T06:30:10.012Z,59.30
2017-04-19T06:31:09.812Z,59.10
2017-04-19T06:32:08.878Z,59.00
2017-04-19T06:33:08.410Z,58.90
2017-04-19T06:34:07.499Z,58.70
2017-04-19T06:35:06.568Z,58.50
2017-04-19T06:36:05.860Z,58.10
2017-04-19T06:37:04.935Z,58.20
2017-04-19T06:38:04.738Z,58.10
2017-04-19T06:39:04.014Z,57.90
2017-04-19T06:40:03.095Z,57.50
2017-04-19T06:41:02.180Z,57.30
2017-04-19T06:42:01.265Z,57.10
2017-04-19T06:43:07.230Z,56.90
2017-04-19T06:44:07.062Z,56.80
2017-04-19T06:45:06.118Z,56.70
2017-04-19T06:46:05.260Z,56.60
2017-04-19T06:47:04.375Z,56.60
2017-04-19T06:48:03.478Z,56.70
2017-04-19T06:49:02.592Z,56.70
2017-04-19T06:50:02.007Z,56.60
2017-04-19T06:51:01.116Z,56.10
2017-04-19T06:52:00.184Z,55.80
2017-04-19T06:52:59.274Z,55.90
2017-04-19T06:53:58.355Z,56.10
2017-04-19T06:54:57.462Z,56.30
2017-04-19T06:55:56.598Z,57.00
2017-04-19T06:56:55.670Z,56.50
2017-04-19T06:57:54.795Z,56.30
2017-04-19T06:58:53.875Z,56.00
2017-04-19T06:59:52.986Z,56.00
2017-04-19T07:00:52.075Z,55.80
2017-04-19T07:01:51.517Z,55.90
2017-04-19T07:02:51.908Z,55.80
2017-04-19T07:03:51.014Z,55.70
2017-04-19T07:04:50.090Z,55.80
2017-04-19T07:05:49.154Z,55.70
2017-04-19T07:06:48.376Z,55.70
2017-04-19T07:07:47.453Z,55.20
2017-04-19T07:08:46.564Z,55.20
2017-04-19T07:09:45.661Z,54.80
2017-04-19T07:10:44.770Z,54.70
2017-04-19T07:11:43.886Z,54.70
2017-04-19T07:12:43.019Z,54.40
2017-04-19T07:13:42.099Z,54.50
2017-04-19T07:14:41.189Z,54.20
2017-04-19T07:15:40.274Z,53.80
2017-04-19T07:16:39.366Z,53.80
2017-04-19T07:17:38.822Z,53.80
2017-04-19T07:18:37.922Z,53.70
2017-04-19T07:19:36.993Z,52.90
2017-04-19T07:20:36.358Z,52.10
2017-04-19T07:21:35.447Z,52.10
2017-04-19T07:22:34.995Z,51.70
2017-04-19T07:23:34.075Z,51.90
2017-04-19T07:24:33.168Z,51.90
2017-04-19T07:25:32.246Z,51.60
2017-04-19T07:26:31.330Z,51.30
2017-04-19T07:27:30.419Z,50.70
2017-04-19T07:28:29.536Z,50.30
2017-04-19T07:29:29.357Z,50.10
2017-04-19T07:30:28.631Z,50.10
2017-04-19T07:31:27.710Z,49.90
2017-04-19T07:32:26.795Z,49.90
2017-04-19T07:33:26.972Z,49.50
2017-04-19T07:34:26.376Z,49.80
2017-04-19T07:35:25.462Z,49.40
2017-04-19T07:36:24.550Z,49.30
2017-04-19T07:37:23.626Z,49.00
2017-04-19T07:38:22.736Z,49.00
2017-04-19T07:39:21.830Z,48.70
2017-04-19T07:40:20.895Z,48.70
2017-04-19T07:41:19.971Z,48.40
2017-04-19T07:42:19.096Z,48.10
2017-04-19T07:43:18.288Z,47.70
2017-04-19T07:44:17.536Z,47.20
2017-04-19T07:45:16.659Z,46.90
2017-04-19T07:46:15.766Z,47.10
2017-04-19T07:47:14.875Z,47.20
2017-04-19T07:48:13.974Z,47.50
2017-04-19T07:49:13.830Z,47.90
2017-04-19T07:50:12.962Z,48.00
2017-04-19T07:51:12.050Z,47.60
2017-04-19T07:52:11.235Z,47.80
2017-04-19T07:53:10.300Z,47.40
2017-04-19T07:54:09.422Z,47.80
2017-04-19T07:55:08.647Z,48.10
2017-04-19T07:56:07.723Z,47.80
2017-04-19T07:57:06.789Z,47.60
2017-04-19T07:58:05.903Z,47.50
2017-04-19T07:59:04.976Z,48.00
2017-04-19T08:00:04.085Z,49.30
2017-04-19T08:01:04.320Z,49.30
2017-04-19T08:02:03.418Z,48.60
2017-04-19T08:03:02.532Z,47.90
2017-04-19T08:04:02.397Z,48.20
2017-04-19T08:05:01.471Z,48.70
2017-04-19T08:06:00.969Z,48.80
2017-04-19T08:07:00.057Z,48.90
2017-04-19T08:07:59.166Z,48.80
2017-04-19T08:08:58.242Z,48.90
2017-04-19T08:09:57.346Z,49.00
2017-04-19T08:10:56.492Z,47.60
2017-04-19T08:11:55.604Z,47.30
2017-04-19T08:12:54.935Z,47.60
2017-04-19T08:13:54.082Z,47.90
2017-04-19T08:14:53.162Z,47.80
2017-04-19T08:15:52.239Z,47.90
2017-04-19T08:16:51.333Z,47.50
2017-04-19T08:17:50.425Z,47.30
2017-04-19T08:18:49.502Z,46.90
2017-04-19T08:19:48.586Z,46.60
2017-04-19T08:20:47.682Z,46.70
2017-04-19T08:21:46.920Z,46.90
2017-04-19T08:22:45.991Z,46.40
2017-04-19T08:23:45.078Z,46.20
2017-04-19T08:24:44.177Z,46.00
2017-04-19T08:25:43.245Z,46.20
2017-04-19T08:26:42.334Z,46.20
2017-04-19T08:27:41.646Z,46.60
2017-04-19T08:28:40.731Z,46.80
2017-04-19T08:29:39.802Z,46.80
2017-04-19T08:30:38.878Z,46.20
2017-04-19T08:31:37.950Z,46.40
2017-04-19T08:32:37.035Z,45.90
2017-04-19T08:33:36.944Z,45.70
2017-04-19T08:34:36.126Z,45.80
2017-04-19T08:35:35.191Z,45.40
2017-04-19T08:36:34.271Z,45.50
2017-04-19T08:37:33.362Z,45.40
2017-04-19T08:38:32.451Z,45.20
2017-04-19T08:39:31.532Z,45.30
2017-04-19T08:40:31.336Z,45.40
2017-04-19T08:41:30.410Z,45.50
2017-04-19T08:42:29.491Z,45.40
2017-04-19T08:43:28.582Z,45.20
2017-04-19T08:44:28.415Z,44.80
2017-04-19T08:45:27.498Z,44.80
2017-04-19T08:46:26.587Z,44.60
2017-04-19T08:47:25.687Z,44.10
2017-04-19T08:48:24.826Z,44.20
2017-04-19T08:49:24.312Z,44.60
2017-04-19T08:50:23.411Z,44.80
2017-04-19T08:51:22.490Z,45.00
2017-04-19T08:52:21.590Z,44.60
2017-04-19T08:53:21.407Z,44.50
2017-04-19T08:54:20.494Z,44.30
2017-04-19T08:55:19.681Z,44.60
2017-04-19T08:56:18.749Z,44.40
2017-04-19T08:57:17.824Z,44.40
2017-04-19T08:58:16.888Z,43.60
2017-04-19T08:59:15.976Z,43.30
2017-04-19T09:00:15.204Z,43.00
2017-04-19T09:01:14.276Z,43.10
2017-04-19T09:02:13.398Z,42.90
2017-04-19T09:03:12.534Z,43.10
2017-04-19T09:04:12.689Z,43.80
2017-04-19T09:05:11.778Z,43.60
2017-04-19T09:06:10.890Z,43.70
2017-04-19T09:07:10.762Z,43.90
2017-04-19T09:08:09.890Z,43.60
2017-04-19T09:09:08.950Z,43.60
2017-04-19T09:10:08.012Z,43.70
2017-04-19T09:11:07.233Z,43.60
2017-04-19T09:12:06.297Z,43.50
2017-04-19T09:13:05.368Z,41.90
2017-04-19T09:14:04.726Z,41.00
2017-04-19T09:15:04.539Z,41.50
2017-04-19T09:16:03.725Z,40.90
2017-04-19T09:17:02.879Z,40.40
2017-04-19T09:18:01.967Z,39.70
2017-04-19T09:19:01.026Z,39.50
2017-04-19T09:20:00.099Z,39.50
2017-04-19T09:20:59.209Z,39.00
2017-04-19T09:21:58.318Z,39.00
2017-04-19T09:22:58.134Z,38.90
2017-04-19T09:23:57.978Z,39.30
2017-04-19T09:24:57.052Z,38.80
2017-04-19T09:25:56.419Z,38.60
2017-04-19T09:26:55.977Z,38.20
2017-04-19T09:27:55.027Z,38.20
2017-04-19T09:28:54.360Z,38.10
2017-04-19T09:29:53.434Z,38.40
2017-04-19T09:30:52.485Z,38.50
2017-04-19T09:31:51.578Z,38.40
2017-04-19T09:32:50.652Z,38.40
2017-04-19T09:33:49.732Z,38.50
2017-04-19T09:34:48.795Z,38.60
2017-04-19T09:35:48.596Z,38.00
2017-04-19T09:36:47.686Z,38.10
2017-04-19T09:37:47.024Z,38.50
2017-04-19T09:38:46.823Z,38.80
2017-04-19T09:39:45.944Z,39.10
2017-04-19T09:40:45.023Z,39.80
2017-04-19T09:41:44.102Z,40.30
2017-04-19T09:42:43.179Z,40.80
2017-04-19T09:43:42.275Z,41.00
2017-04-19T09:44:41.332Z,40.50
2017-04-19T09:45:40.443Z,40.30
2017-04-19T09:46:46.152Z,40.20
2017-04-19T09:47:45.232Z,39.90
2017-04-19T09:48:44.530Z,39.80
2017-04-19T09:49:43.617Z,39.60
2017-04-19T09:50:42.698Z,39.60
2017-04-19T09:51:41.770Z,39.70
2017-04-19T09:52:40.833Z,39.90
2017-04-19T09:53:39.918Z,39.80
2017-04-19T09:54:39.102Z,40.00
2017-04-19T09:55:38.258Z,40.10
2017-04-19T09:56:37.361Z,39.30
2017-04-19T09:57:37.204Z,38.60
2017-04-19T09:58:36.285Z,38.70
2017-04-19T09:59:35.361Z,38.90
2017-04-19T10:00:34.458Z,38.60
2017-04-19T10:01:33.528Z,38.40
2017-04-19T10:02:32.603Z,38.30
2017-04-19T10:03:32.061Z,38.40
2017-04-19T10:04:31.122Z,37.80
2017-04-19T10:05:31.146Z,37.70
2017-04-19T10:06:30.266Z,37.80
2017-04-19T10:07:29.355Z,38.20
2017-04-19T10:08:28.440Z,38.40
2017-04-19T10:09:27.526Z,39.00
2017-04-19T10:10:26.611Z,38.30
2017-04-19T10:11:25.727Z,38.30
2017-04-19T10:12:24.835Z,37.90
2017-04-19T10:13:23.943Z,37.80
2017-04-19T10:14:23.790Z,37.60
2017-04-19T10:15:22.898Z,37.60
2017-04-19T10:16:22.138Z,37.60
2017-04-19T10:17:21.240Z,37.90
2017-04-19T10:18:20.316Z,37.70
2017-04-19T10:19:19.402Z,38.20
2017-04-19T10:20:18.496Z,38.40
2017-04-19T10:21:17.603Z,37.60
2017-04-19T10:22:16.722Z,37.30
2017-04-19T10:23:15.786Z,36.90
2017-04-19T10:24:14.859Z,36.40
2017-04-19T10:25:13.946Z,36.00
2017-04-19T10:26:13.536Z,35.60
2017-04-19T10:27:12.946Z,34.90
2017-04-19T10:28:12.991Z,34.50
2017-04-19T10:29:12.795Z,34.40
2017-04-19T10:30:12.667Z,34.10
2017-04-19T10:31:11.773Z,33.90
2017-04-19T10:32:10.888Z,33.80
2017-04-19T10:33:09.973Z,33.50
2017-04-19T10:34:09.034Z,32.80
2017-04-19T10:35:08.090Z,32.60
2017-04-19T10:36:07.162Z,32.60
2017-04-19T10:37:06.220Z,32.50
2017-04-19T10:38:05.460Z,32.50
2017-04-19T10:39:04.871Z,31.80
2017-04-19T10:40:03.958Z,30.50
2017-04-19T10:41:03.043Z,29.70
2017-04-19T10:42:02.108Z,29.80
2017-04-19T10:43:01.177Z,30.00
2017-04-19T10:44:00.530Z,30.90
2017-04-19T10:44:59.610Z,31.60
2017-04-19T10:45:58.695Z,31.20
2017-04-19T10:46:57.818Z,31.30
2017-04-19T10:47:57.658Z,31.70
2017-04-19T10:48:56.985Z,31.80
2017-04-19T10:49:56.115Z,31.60
2017-04-19T10:50:55.195Z,31.30
2017-04-19T10:51:54.274Z,31.10
2017-04-19T10:52:53.619Z,31.20
2017-04-19T10:53:52.862Z,31.50
2017-04-19T10:54:51.932Z,31.80
2017-04-19T10:55:51.030Z,32.10
2017-04-19T10:56:50.098Z,32.40
2017-04-19T10:57:49.191Z,32.40
2017-04-19T10:58:48.269Z,32.60
2017-04-19T10:59:48.132Z,32.60
2017-04-19T11:00:47.230Z,32.60
2017-04-19T11:01:46.314Z,32.60
2017-04-19T11:02:45.405Z,32.70
2017-04-19T11:03:44.494Z,32.60
2017-04-19T11:04:43.714Z,32.40
2017-04-19T11:05:42.832Z,32.40
2017-04-19T11:06:41.887Z,32.00
2017-04-19T11:07:40.958Z,30.40
2017-04-19T11:08:40.037Z,30.00
2017-04-19T11:09:39.167Z,29.60
2017-04-19T11:10:38.288Z,28.80
2017-04-19T11:11:37.350Z,28.30
2017-04-19T11:12:37.225Z,27.90
2017-04-19T11:13:36.353Z,28.00
2017-04-19T11:14:35.438Z,28.30
2017-04-19T11:15:34.698Z,28.50
2017-04-19T11:16:34.571Z,29.30
2017-04-19T11:17:33.658Z,29.50
2017-04-19T11:18:32.739Z,29.60
2017-04-19T11:19:31.819Z,29.60
2017-04-19T11:20:30.910Z,29.50
2017-04-19T11:21:30.031Z,29.40
2017-04-19T11:22:29.106Z,30.00
2017-04-19T11:23:28.935Z,31.10
2017-04-19T11:24:28.115Z,31.00
2017-04-19T11:25:27.808Z,31.00
2017-04-19T11:26:27.026Z,30.50
2017-04-19T11:27:26.115Z,30.30
2017-04-19T11:28:25.175Z,30.00
2017-04-19T11:29:24.975Z,29.90
2017-04-19T11:30:24.076Z,30.00
2017-04-19T11:31:23.118Z,30.10
2017-04-19T11:32:22.458Z,30.90
2017-04-19T11:33:21.538Z,31.60
2017-04-19T11:34:20.608Z,31.80
2017-04-19T11:35:19.762Z,32.10
2017-04-19T11:36:19.015Z,31.70
2017-04-19T11:37:18.174Z,32.10
2017-04-19T11:38:17.278Z,32.10
2017-04-19T11:39:16.338Z,32.10
2017-04-19T11:40:15.421Z,32.70
2017-04-19T11:41:14.475Z,32.60
2017-04-19T11:42:13.566Z,32.00
2017-04-19T11:43:13.557Z,31.80
2017-04-19T11:44:12.626Z,31.40
2017-04-19T11:45:11.683Z,31.10
2017-04-19T11:46:10.758Z,31.10
2017-04-19T11:47:10.765Z,31.30
2017-04-19T11:48:09.888Z,31.30
2017-04-19T11:49:09.414Z,30.80
2017-04-19T11:50:08.806Z,30.80
2017-04-19T11:51:07.886Z,31.30
2017-04-19T11:52:06.970Z,31.70
2017-04-19T11:53:06.060Z,33.50
2017-04-19T11:54:05.278Z,34.80
2017-04-19T11:55:04.363Z,36.40
2017-04-19T11:56:03.490Z,36.90
2017-04-19T11:57:02.571Z,37.40
2017-04-19T11:58:02.391Z,37.40
2017-04-19T11:59:01.483Z,38.00
2017-04-19T12:00:00.634Z,37.10
2017-04-19T12:00:59.694Z,36.80
2017-04-19T12:01:58.775Z,36.60
2017-04-19T12:02:57.934Z,36.70
2017-04-19T12:03:57.157Z,37.40
2017-04-19T12:04:56.710Z,38.00
2017-04-19T12:05:55.795Z,38.60
2017-04-19T12:06:54.886Z,39.70
2017-04-19T12:07:53.961Z,39.80
2017-04-19T12:08:53.023Z,39.60
2017-04-19T12:09:52.101Z,39.80
2017-04-19T12:10:51.190Z,39.80
2017-04-19T12:11:50.278Z,39.30
2017-04-19T12:12:49.362Z,39.30
2017-04-19T12:13:48.422Z,39.00
2017-04-19T12:14:47.515Z,38.90
2017-04-19T12:15:46.826Z,38.90
2017-04-19T12:16:45.885Z,39.60
2017-04-19T12:17:45.532Z,37.90
2017-04-19T12:18:44.616Z,36.80
2017-04-19T12:19:43.710Z,37.00
2017-04-19T12:20:43.514Z,36.60
2017-04-19T12:21:42.619Z,36.40
2017-04-19T12:22:41.721Z,37.20
2017-04-19T12:23:40.860Z,36.20
2017-04-19T12:24:39.947Z,36.10
2017-04-19T12:25:39.034Z,36.50
2017-04-19T12:26:38.610Z,36.40
2017-04-19T12:27:37.733Z,35.80
2017-04-19T12:28:36.847Z,35.60
2017-04-19T12:29:35.910Z,36.00
2017-04-19T12:30:35.758Z,36.10
2017-04-19T12:31:34.858Z,36.00
2017-04-19T12:32:33.958Z,36.00
2017-04-19T12:33:33.374Z,35.80
2017-04-19T12:34:33.207Z,35.60
2017-04-19T12:35:32.291Z,35.00
2017-04-19T12:36:34.390Z,34.30
2017-04-19T12:37:33.629Z,34.30
2017-04-19T12:38:32.719Z,34.30
2017-04-19T12:39:31.802Z,34.40
2017-04-19T12:40:30.890Z,34.20
2017-04-19T12:41:29.959Z,34.40
2017-04-19T12:42:29.024Z,34.30
2017-04-19T12:43:28.138Z,34.30